sensor_id;sensor_type;location;lat;lon;timestamp;temperature;humidity
55365;DHT22;41245;45.384;20.390;2022-12-07T00:01:33;128.40;1100.80
55365;DHT22;41245;45.384;20.390;2022-12-07T00:04:00;128.70;1126.40
55365;DHT22;41245;45.384;20.390;2022-12-07T00:06:31;128.80;998.40
55365;DHT22;41245;45.384;20.390;2022-12-07T00:08:58;128.90;1331.20
55365;DHT22;41245;45.384;20.390;2022-12-07T00:11:24;128.80;1254.40
55365;DHT22;41245;45.384;20.390;2022-12-07T00:14:02;128.80;1126.40
55365;DHT22;41245;45.384;20.390;2022-12-07T00:16:30;128.90;998.40
55365;DHT22;41245;45.384;20.390;2022-12-07T00:18:56;153.60;1228.80
55365;DHT22;41245;45.384;20.390;2022-12-07T00:21:24;128.80;1049.60
55365;DHT22;41245;45.384;20.390;2022-12-07T00:23:51;128.90;947.20
55365;DHT22;41245;45.384;20.390;2022-12-07T00:26:20;128.80;998.40
55365;DHT22;41245;45.384;20.390;2022-12-07T00:28:54;128.80;998.40
55365;DHT22;41245;45.384;20.390;2022-12-07T00:31:23;128.90;1100.80
55365;DHT22;41245;45.384;20.390;2022-12-07T00:33:50;128.80;1049.60
55365;DHT22;41245;45.384;20.390;2022-12-07T00:36:18;128.70;844.80
55365;DHT22;41245;45.384;20.390;2022-12-07T00:38:44;128.30;435.20
55365;DHT22;41245;45.384;20.390;2022-12-07T00:41:11;128.50;563.20
55365;DHT22;41245;45.384;20.390;2022-12-07T00:43:37;128.30;614.40
55365;DHT22;41245;45.384;20.390;2022-12-07T00:46:03;128.00;6528.00
55365;DHT22;41245;45.384;20.390;2022-12-07T00:48:28;103.30;6476.80
55365;DHT22;41245;45.384;20.390;2022-12-07T00:50:55;103.20;6476.80
55365;DHT22;41245;45.384;20.390;2022-12-07T00:53:21;103.20;6476.80
55365;DHT22;41245;45.384;20.390;2022-12-07T00:55:46;103.10;6476.80
55365;DHT22;41245;45.384;20.390;2022-12-07T00:58:12;103.20;6476.80
55365;DHT22;41245;45.384;20.390;2022-12-07T01:00:40;103.20;6476.80
55365;DHT22;41245;45.384;20.390;2022-12-07T01:03:07;103.00;6476.80
55365;DHT22;41245;45.384;20.390;2022-12-07T01:05:33;102.90;6476.80
55365;DHT22;41245;45.384;20.390;2022-12-07T01:07:59;102.70;6476.80
55365;DHT22;41245;45.384;20.390;2022-12-07T01:10:25;102.40;6476.80
55365;DHT22;41245;45.384;20.390;2022-12-07T01:12:51;77.70;6476.80
55365;DHT22;41245;45.384;20.390;2022-12-07T01:15:17;77.70;6476.80
55365;DHT22;41245;45.384;20.390;2022-12-07T01:17:43;77.70;6476.80
55365;DHT22;41245;45.384;20.390;2022-12-07T01:20:09;77.60;6476.80
55365;DHT22;41245;45.384;20.390;2022-12-07T01:22:38;77.40;6476.80
55365;DHT22;41245;45.384;20.390;2022-12-07T01:25:05;77.50;6476.80
55365;DHT22;41245;45.384;20.390;2022-12-07T01:27:32;77.40;6476.80
55365;DHT22;41245;45.384;20.390;2022-12-07T01:29:58;77.30;6476.80
55365;DHT22;41245;45.384;20.390;2022-12-07T01:32:24;77.30;6476.80
55365;DHT22;41245;45.384;20.390;2022-12-07T01:34:49;77.50;6476.80
55365;DHT22;41245;45.384;20.390;2022-12-07T01:37:15;77.60;128.00
55365;DHT22;41245;45.384;20.390;2022-12-07T01:39:41;77.50;512.00
55365;DHT22;41245;45.384;20.390;2022-12-07T01:42:11;77.50;486.40
55365;DHT22;41245;45.384;20.390;2022-12-07T01:47:57;102.40;512.00
55365;DHT22;41245;45.384;20.390;2022-12-07T01:50:26;102.90;742.40
55365;DHT22;41245;45.384;20.390;2022-12-07T01:52:53;102.70;921.60
55365;DHT22;41245;45.384;20.390;2022-12-07T01:55:21;102.90;972.80
55365;DHT22;41245;45.384;20.390;2022-12-07T01:57:52;102.90;1075.20
55365;DHT22;41245;45.384;20.390;2022-12-07T02:00:19;103.00;1024.00
55365;DHT22;41245;45.384;20.390;2022-12-07T02:02:55;103.10;1100.80
55365;DHT22;41245;45.384;20.390;2022-12-07T02:05:24;103.30;1177.60
55365;DHT22;41245;45.384;20.390;2022-12-07T02:07:53;128.00;1305.60
55365;DHT22;41245;45.384;20.390;2022-12-07T02:10:22;128.00;1177.60
55365;DHT22;41245;45.384;20.390;2022-12-07T02:12:54;128.00;1075.20
55365;DHT22;41245;45.384;20.390;2022-12-07T02:15:22;103.20;1126.40
55365;DHT22;41245;45.384;20.390;2022-12-07T02:32:09;128.00;896.00
55365;DHT22;41245;45.384;20.390;2022-12-07T02:34:50;128.20;1228.80
55365;DHT22;41245;45.384;20.390;2022-12-07T02:37:33;128.30;1331.20
55365;DHT22;41245;45.384;20.390;2022-12-07T02:42:47;128.50;1126.40
55365;DHT22;41245;45.384;20.390;2022-12-07T02:45:17;128.70;1356.80
55365;DHT22;41245;45.384;20.390;2022-12-07T02:47:49;128.60;1484.80
55365;DHT22;41245;45.384;20.390;2022-12-07T02:50:21;128.10;1433.60
55365;DHT22;41245;45.384;20.390;2022-12-07T02:52:47;128.00;1075.20
55365;DHT22;41245;45.384;20.390;2022-12-07T02:55:16;128.10;1356.80
55365;DHT22;41245;45.384;20.390;2022-12-07T02:58:17;128.20;1408.00
55365;DHT22;41245;45.384;20.390;2022-12-07T03:01:22;128.20;947.20
55365;DHT22;41245;45.384;20.390;2022-12-07T03:04:08;128.30;1024.00
55365;DHT22;41245;45.384;20.390;2022-12-07T03:06:43;128.30;1203.20
55365;DHT22;41245;45.384;20.390;2022-12-07T03:09:42;128.40;1152.00
55365;DHT22;41245;45.384;20.390;2022-12-07T03:12:14;128.40;921.60
55365;DHT22;41245;45.384;20.390;2022-12-07T03:14:50;128.30;947.20
55365;DHT22;41245;45.384;20.390;2022-12-07T03:17:24;128.40;972.80
55365;DHT22;41245;45.384;20.390;2022-12-07T03:19:54;128.40;870.40
55365;DHT22;41245;45.384;20.390;2022-12-07T03:22:23;128.40;947.20
55365;DHT22;41245;45.384;20.390;2022-12-07T03:25:00;128.50;896.00
55365;DHT22;41245;45.384;20.390;2022-12-07T03:27:34;128.60;1024.00
55365;DHT22;41245;45.384;20.390;2022-12-07T03:35:16;128.80;1152.00
55365;DHT22;41245;45.384;20.390;2022-12-07T03:37:55;128.80;921.60
55365;DHT22;41245;45.384;20.390;2022-12-07T03:40:35;128.90;947.20
55365;DHT22;41245;45.384;20.390;2022-12-07T03:43:03;128.80;972.80
55365;DHT22;41245;45.384;20.390;2022-12-07T03:48:07;128.90;1305.60
55365;DHT22;41245;45.384;20.390;2022-12-07T03:53:14;128.90;1075.20
55365;DHT22;41245;45.384;20.390;2022-12-07T03:55:43;128.90;998.40
55365;DHT22;41245;45.384;20.390;2022-12-07T03:58:14;128.90;1075.20
55365;DHT22;41245;45.384;20.390;2022-12-07T04:00:41;128.90;972.80
55365;DHT22;41245;45.384;20.390;2022-12-07T04:03:07;128.80;1075.20
55365;DHT22;41245;45.384;20.390;2022-12-07T04:05:33;128.80;947.20
55365;DHT22;41245;45.384;20.390;2022-12-07T04:07:59;128.90;921.60
55365;DHT22;41245;45.384;20.390;2022-12-07T04:10:25;153.70;1075.20
55365;DHT22;41245;45.384;20.390;2022-12-07T04:12:51;153.90;1126.40
55365;DHT22;41245;45.384;20.390;2022-12-07T04:15:16;154.10;1228.80
55365;DHT22;41245;45.384;20.390;2022-12-07T04:17:42;154.20;1280.00
55365;DHT22;41245;45.384;20.390;2022-12-07T04:20:08;154.10;1203.20
55365;DHT22;41245;45.384;20.390;2022-12-07T04:22:34;154.10;1305.60
55365;DHT22;41245;45.384;20.390;2022-12-07T04:25:00;154.10;1382.40
55365;DHT22;41245;45.384;20.390;2022-12-07T04:27:26;154.10;1126.40
55365;DHT22;41245;45.384;20.390;2022-12-07T04:29:52;154.10;1203.20
55365;DHT22;41245;45.384;20.390;2022-12-07T04:32:17;154.30;1228.80
55365;DHT22;41245;45.384;20.390;2022-12-07T04:34:43;154.20;1228.80
55365;DHT22;41245;45.384;20.390;2022-12-07T04:37:09;154.10;1254.40
55365;DHT22;41245;45.384;20.390;2022-12-07T04:39:34;154.10;1280.00
55365;DHT22;41245;45.384;20.390;2022-12-07T04:42:01;154.10;1433.60
55365;DHT22;41245;45.384;20.390;2022-12-07T04:44:28;154.20;1356.80
55365;DHT22;41245;45.384;20.390;2022-12-07T04:46:54;154.30;1203.20
55365;DHT22;41245;45.384;20.390;2022-12-07T04:49:21;154.20;1280.00
55365;DHT22;41245;45.384;20.390;2022-12-07T04:51:47;154.20;1254.40
55365;DHT22;41245;45.384;20.390;2022-12-07T04:54:14;154.10;1331.20
55365;DHT22;41245;45.384;20.390;2022-12-07T04:56:40;154.00;1152.00
55365;DHT22;41245;45.384;20.390;2022-12-07T04:59:06;154.10;1177.60
55365;DHT22;41245;45.384;20.390;2022-12-07T05:01:33;154.00;1152.00
55365;DHT22;41245;45.384;20.390;2022-12-07T05:03:59;153.90;1152.00
55365;DHT22;41245;45.384;20.390;2022-12-07T05:06:25;154.10;1254.40
55365;DHT22;41245;45.384;20.390;2022-12-07T05:08:51;154.00;1254.40
55365;DHT22;41245;45.384;20.390;2022-12-07T05:11:17;154.00;1280.00
55365;DHT22;41245;45.384;20.390;2022-12-07T05:14:02;154.10;1203.20
55365;DHT22;41245;45.384;20.390;2022-12-07T05:16:28;154.20;1280.00
55365;DHT22;41245;45.384;20.390;2022-12-07T05:18:54;154.10;1228.80
55365;DHT22;41245;45.384;20.390;2022-12-07T05:21:20;154.20;1587.20
55365;DHT22;41245;45.384;20.390;2022-12-07T05:23:46;154.10;1587.20
55365;DHT22;41245;45.384;20.390;2022-12-07T05:26:11;154.10;1536.00
55365;DHT22;41245;45.384;20.390;2022-12-07T05:28:37;154.00;1459.20
55365;DHT22;41245;45.384;20.390;2022-12-07T05:31:03;154.10;1484.80
55365;DHT22;41245;45.384;20.390;2022-12-07T05:33:29;154.00;1382.40
55365;DHT22;41245;45.384;20.390;2022-12-07T05:35:54;153.90;1510.40
55365;DHT22;41245;45.384;20.390;2022-12-07T05:38:20;153.90;1484.80
55365;DHT22;41245;45.384;20.390;2022-12-07T05:40:46;153.80;1484.80
55365;DHT22;41245;45.384;20.390;2022-12-07T05:43:12;153.70;1459.20
55365;DHT22;41245;45.384;20.390;2022-12-07T05:45:37;153.60;1408.00
55365;DHT22;41245;45.384;20.390;2022-12-07T05:48:03;153.90;1228.80
55365;DHT22;41245;45.384;20.390;2022-12-07T05:50:29;154.00;1408.00
55365;DHT22;41245;45.384;20.390;2022-12-07T05:52:55;154.00;1459.20
55365;DHT22;41245;45.384;20.390;2022-12-07T05:55:20;154.10;1536.00
55365;DHT22;41245;45.384;20.390;2022-12-07T05:57:46;154.30;1561.60
55365;DHT22;41245;45.384;20.390;2022-12-07T06:00:31;154.20;1510.40
55365;DHT22;41245;45.384;20.390;2022-12-07T06:02:57;154.30;1612.80
55365;DHT22;41245;45.384;20.390;2022-12-07T06:05:23;154.20;1484.80
55365;DHT22;41245;45.384;20.390;2022-12-07T06:07:48;154.10;1484.80
55365;DHT22;41245;45.384;20.390;2022-12-07T06:10:14;154.00;1408.00
55365;DHT22;41245;45.384;20.390;2022-12-07T06:12:40;154.00;1408.00
55365;DHT22;41245;45.384;20.390;2022-12-07T06:15:09;154.10;1408.00
55365;DHT22;41245;45.384;20.390;2022-12-07T06:17:35;154.20;1459.20
55365;DHT22;41245;45.384;20.390;2022-12-07T06:20:01;154.20;1561.60
55365;DHT22;41245;45.384;20.390;2022-12-07T06:22:27;154.40;1587.20
55365;DHT22;41245;45.384;20.390;2022-12-07T06:24:53;154.50;1664.00
55365;DHT22;41245;45.384;20.390;2022-12-07T06:27:19;154.50;1536.00
55365;DHT22;41245;45.384;20.390;2022-12-07T06:29:45;154.50;1536.00
55365;DHT22;41245;45.384;20.390;2022-12-07T06:32:10;179.20;1612.80
55365;DHT22;41245;45.384;20.390;2022-12-07T06:34:37;179.20;1612.80
55365;DHT22;41245;45.384;20.390;2022-12-07T06:37:03;154.50;1638.40
55365;DHT22;41245;45.384;20.390;2022-12-07T06:39:29;154.30;1561.60
55365;DHT22;41245;45.384;20.390;2022-12-07T06:41:55;154.30;1510.40
55365;DHT22;41245;45.384;20.390;2022-12-07T06:44:22;154.50;1689.60
55365;DHT22;41245;45.384;20.390;2022-12-07T06:46:48;179.20;1638.40
55365;DHT22;41245;45.384;20.390;2022-12-07T06:49:14;179.20;1664.00
55365;DHT22;41245;45.384;20.390;2022-12-07T06:51:40;179.30;1664.00
55365;DHT22;41245;45.384;20.390;2022-12-07T06:54:10;179.40;1715.20
55365;DHT22;41245;45.384;20.390;2022-12-07T06:56:36;179.30;1689.60
55365;DHT22;41245;45.384;20.390;2022-12-07T06:59:03;179.30;1689.60
55365;DHT22;41245;45.384;20.390;2022-12-07T07:01:31;179.20;1382.40
55365;DHT22;41245;45.384;20.390;2022-12-07T07:03:56;154.40;1484.80
55365;DHT22;41245;45.384;20.390;2022-12-07T07:06:22;179.30;1638.40
55365;DHT22;41245;45.384;20.390;2022-12-07T07:08:48;154.20;1740.80
55365;DHT22;41245;45.384;20.390;2022-12-07T07:11:13;154.40;1766.40
55365;DHT22;41245;45.384;20.390;2022-12-07T07:13:39;154.20;1382.40
55365;DHT22;41245;45.384;20.390;2022-12-07T07:16:06;154.40;1766.40
55365;DHT22;41245;45.384;20.390;2022-12-07T07:18:32;154.50;1561.60
55365;DHT22;41245;45.384;20.390;2022-12-07T07:20:58;154.50;1459.20
55365;DHT22;41245;45.384;20.390;2022-12-07T07:23:24;154.40;1561.60
55365;DHT22;41245;45.384;20.390;2022-12-07T07:25:49;154.10;1536.00
55365;DHT22;41245;45.384;20.390;2022-12-07T07:28:16;154.20;1510.40
55365;DHT22;41245;45.384;20.390;2022-12-07T07:30:42;154.00;1536.00
55365;DHT22;41245;45.384;20.390;2022-12-07T07:33:09;153.80;1536.00
55365;DHT22;41245;45.384;20.390;2022-12-07T07:35:34;153.60;1280.00
55365;DHT22;41245;45.384;20.390;2022-12-07T07:38:01;153.70;1408.00
55365;DHT22;41245;45.384;20.390;2022-12-07T07:40:27;153.70;1510.40
55365;DHT22;41245;45.384;20.390;2022-12-07T07:42:54;153.90;1638.40
55365;DHT22;41245;45.384;20.390;2022-12-07T07:45:22;153.90;1536.00
55365;DHT22;41245;45.384;20.390;2022-12-07T07:47:48;153.90;1382.40
55365;DHT22;41245;45.384;20.390;2022-12-07T07:50:15;153.80;1280.00
55365;DHT22;41245;45.384;20.390;2022-12-07T07:52:41;154.10;1382.40
55365;DHT22;41245;45.384;20.390;2022-12-07T07:55:07;153.90;1510.40
55365;DHT22;41245;45.384;20.390;2022-12-07T07:57:39;153.80;1280.00
55365;DHT22;41245;45.384;20.390;2022-12-07T08:00:09;153.70;1280.00
55365;DHT22;41245;45.384;20.390;2022-12-07T08:02:36;153.70;1331.20
55365;DHT22;41245;45.384;20.390;2022-12-07T08:05:02;153.80;1280.00
55365;DHT22;41245;45.384;20.390;2022-12-07T08:07:28;153.90;1638.40
55365;DHT22;41245;45.384;20.390;2022-12-07T08:09:54;154.10;1305.60
55365;DHT22;41245;45.384;20.390;2022-12-07T08:12:19;154.10;1638.40
55365;DHT22;41245;45.384;20.390;2022-12-07T08:14:45;153.90;1305.60
55365;DHT22;41245;45.384;20.390;2022-12-07T08:17:11;153.90;1510.40
55365;DHT22;41245;45.384;20.390;2022-12-07T08:19:38;153.80;1536.00
55365;DHT22;41245;45.384;20.390;2022-12-07T08:22:03;153.70;1638.40
55365;DHT22;41245;45.384;20.390;2022-12-07T08:24:29;153.90;1510.40
55365;DHT22;41245;45.384;20.390;2022-12-07T08:26:55;154.10;1664.00
55365;DHT22;41245;45.384;20.390;2022-12-07T08:29:21;154.20;1638.40
55365;DHT22;41245;45.384;20.390;2022-12-07T08:31:47;154.40;1740.80
55365;DHT22;41245;45.384;20.390;2022-12-07T08:34:13;154.40;1612.80
55365;DHT22;41245;45.384;20.390;2022-12-07T08:36:39;154.50;1689.60
55365;DHT22;41245;45.384;20.390;2022-12-07T08:39:05;154.30;1612.80
55365;DHT22;41245;45.384;20.390;2022-12-07T08:41:32;154.20;1612.80
55365;DHT22;41245;45.384;20.390;2022-12-07T08:43:58;154.00;1587.20
55365;DHT22;41245;45.384;20.390;2022-12-07T08:46:25;153.80;1536.00
55365;DHT22;41245;45.384;20.390;2022-12-07T08:48:52;153.70;1484.80
55365;DHT22;41245;45.384;20.390;2022-12-07T08:51:21;153.90;1664.00
55365;DHT22;41245;45.384;20.390;2022-12-07T08:53:48;153.90;1484.80
55365;DHT22;41245;45.384;20.390;2022-12-07T08:56:14;154.00;1510.40
55365;DHT22;41245;45.384;20.390;2022-12-07T08:58:40;153.90;1459.20
55365;DHT22;41245;45.384;20.390;2022-12-07T09:01:06;154.00;1484.80
55365;DHT22;41245;45.384;20.390;2022-12-07T09:03:32;154.30;1536.00
55365;DHT22;41245;45.384;20.390;2022-12-07T09:05:59;154.20;1510.40
55365;DHT22;41245;45.384;20.390;2022-12-07T09:08:29;154.40;1664.00
55365;DHT22;41245;45.384;20.390;2022-12-07T09:10:56;154.50;1612.80
55365;DHT22;41245;45.384;20.390;2022-12-07T09:13:21;179.20;1689.60
55365;DHT22;41245;45.384;20.390;2022-12-07T09:15:47;154.50;1587.20
55365;DHT22;41245;45.384;20.390;2022-12-07T09:18:13;179.30;1740.80
55365;DHT22;41245;45.384;20.390;2022-12-07T09:20:39;179.60;1766.40
55365;DHT22;41245;45.384;20.390;2022-12-07T09:23:06;179.70;1817.60
55365;DHT22;41245;45.384;20.390;2022-12-07T09:25:33;179.70;1817.60
55365;DHT22;41245;45.384;20.390;2022-12-07T09:27:59;179.90;1868.80
55365;DHT22;41245;45.384;20.390;2022-12-07T09:30:26;180.00;1817.60
55365;DHT22;41245;45.384;20.390;2022-12-07T09:32:56;204.80;1740.80
55365;DHT22;41245;45.384;20.390;2022-12-07T09:35:25;204.80;1715.20
55365;DHT22;41245;45.384;20.390;2022-12-07T09:37:51;204.80;1715.20
55365;DHT22;41245;45.384;20.390;2022-12-07T09:40:19;204.90;1817.60
55365;DHT22;41245;45.384;20.390;2022-12-07T09:42:49;204.90;1792.00
55365;DHT22;41245;45.384;20.390;2022-12-07T09:45:20;204.80;1766.40
55365;DHT22;41245;45.384;20.390;2022-12-07T09:47:47;204.80;1766.40
55365;DHT22;41245;45.384;20.390;2022-12-07T09:50:24;205.00;1894.40
55365;DHT22;41245;45.384;20.390;2022-12-07T09:52:51;205.00;1920.00
55365;DHT22;41245;45.384;20.390;2022-12-07T09:55:26;205.10;2048.00
55365;DHT22;41245;45.384;20.390;2022-12-07T09:57:52;205.30;2124.80
55365;DHT22;41245;45.384;20.390;2022-12-07T10:00:21;205.40;2099.20
55365;DHT22;41245;45.384;20.390;2022-12-07T10:02:55;205.40;2073.60
55365;DHT22;41245;45.384;20.390;2022-12-07T10:05:40;205.30;1766.40
55365;DHT22;41245;45.384;20.390;2022-12-07T10:08:10;205.30;2124.80
55365;DHT22;41245;45.384;20.390;2022-12-07T10:10:36;205.40;1843.20
55365;DHT22;41245;45.384;20.390;2022-12-07T10:13:09;205.60;2099.20
55365;DHT22;41245;45.384;20.390;2022-12-07T10:21:10;230.70;2073.60
55365;DHT22;41245;45.384;20.390;2022-12-07T10:23:39;230.70;2252.80
55365;DHT22;41245;45.384;20.390;2022-12-07T10:29:34;231.10;2252.80
55365;DHT22;41245;45.384;20.390;2022-12-07T10:32:26;231.20;2252.80
55365;DHT22;41245;45.384;20.390;2022-12-07T10:37:43;231.30;2252.80
55365;DHT22;41245;45.384;20.390;2022-12-07T10:40:31;231.00;2252.80
55365;DHT22;41245;45.384;20.390;2022-12-07T11:02:06;256.20;2252.80
55365;DHT22;41245;45.384;20.390;2022-12-07T11:04:52;231.30;2252.80
55365;DHT22;41245;45.384;20.390;2022-12-07T11:10:17;231.10;2252.80
55365;DHT22;41245;45.384;20.390;2022-12-07T11:18:06;256.00;2252.80
55365;DHT22;41245;45.384;20.390;2022-12-07T11:37:08;256.50;2252.80
55365;DHT22;41245;45.384;20.390;2022-12-07T11:39:42;256.70;2252.80
55365;DHT22;41245;45.384;20.390;2022-12-07T11:42:29;256.40;2252.80
55365;DHT22;41245;45.384;20.390;2022-12-07T11:45:17;256.00;2252.80
55365;DHT22;41245;45.384;20.390;2022-12-07T11:50:43;231.30;2252.80
55365;DHT22;41245;45.384;20.390;2022-12-07T11:53:25;256.20;2252.80
55365;DHT22;41245;45.384;20.390;2022-12-07T12:03:44;256.10;2252.80
55365;DHT22;41245;45.384;20.390;2022-12-07T12:06:10;256.10;2252.80
55365;DHT22;41245;45.384;20.390;2022-12-07T12:20:21;256.10;2252.80
55365;DHT22;41245;45.384;20.390;2022-12-07T12:23:10;256.20;2252.80
55365;DHT22;41245;45.384;20.390;2022-12-07T12:25:50;256.10;2252.80
55365;DHT22;41245;45.384;20.390;2022-12-07T12:28:23;256.20;2227.20
55365;DHT22;41245;45.384;20.390;2022-12-07T12:31:13;256.20;2252.80
55365;DHT22;41245;45.384;20.390;2022-12-07T12:33:45;256.00;2252.80
55365;DHT22;41245;45.384;20.390;2022-12-07T12:59:29;256.00;2252.80
55365;DHT22;41245;45.384;20.390;2022-12-07T13:02:22;231.30;2252.80
55365;DHT22;41245;45.384;20.390;2022-12-07T13:10:35;231.00;2252.80
55365;DHT22;41245;45.384;20.390;2022-12-07T13:15:50;230.90;2099.20
55365;DHT22;41245;45.384;20.390;2022-12-07T13:18:45;231.00;2227.20
55365;DHT22;41245;45.384;20.390;2022-12-07T13:23:55;231.10;2252.80
55365;DHT22;41245;45.384;20.390;2022-12-07T13:34:33;231.00;2073.60
55365;DHT22;41245;45.384;20.390;2022-12-07T13:37:01;230.90;2176.00
55365;DHT22;41245;45.384;20.390;2022-12-07T13:39:27;231.00;2252.80
55365;DHT22;41245;45.384;20.390;2022-12-07T13:41:55;231.10;2176.00
55365;DHT22;41245;45.384;20.390;2022-12-07T13:44:27;231.20;2201.60
55365;DHT22;41245;45.384;20.390;2022-12-07T13:47:19;231.10;2176.00
55365;DHT22;41245;45.384;20.390;2022-12-07T13:49:52;231.00;2252.80
55365;DHT22;41245;45.384;20.390;2022-12-07T13:52:24;231.00;2252.80
55365;DHT22;41245;45.384;20.390;2022-12-07T13:55:05;230.90;2150.40
55365;DHT22;41245;45.384;20.390;2022-12-07T13:57:35;230.70;2227.20
55365;DHT22;41245;45.384;20.390;2022-12-07T14:00:13;231.00;2099.20
55365;DHT22;41245;45.384;20.390;2022-12-07T14:02:56;230.90;2124.80
55365;DHT22;41245;45.384;20.390;2022-12-07T14:12:56;230.80;2252.80
55365;DHT22;41245;45.384;20.390;2022-12-07T14:15:27;230.90;2252.80
55365;DHT22;41245;45.384;20.390;2022-12-07T14:17:54;230.90;2099.20
55365;DHT22;41245;45.384;20.390;2022-12-07T14:20:36;231.00;2124.80
55365;DHT22;41245;45.384;20.390;2022-12-07T14:23:04;231.00;2252.80
55365;DHT22;41245;45.384;20.390;2022-12-07T14:25:52;231.00;2150.40
55365;DHT22;41245;45.384;20.390;2022-12-07T14:28:30;231.00;2252.80
55365;DHT22;41245;45.384;20.390;2022-12-07T14:30:57;230.90;2227.20
55365;DHT22;41245;45.384;20.390;2022-12-07T14:33:24;230.90;2176.00
55365;DHT22;41245;45.384;20.390;2022-12-07T14:35:49;230.80;2227.20
55365;DHT22;41245;45.384;20.390;2022-12-07T14:38:15;230.70;2124.80
55365;DHT22;41245;45.384;20.390;2022-12-07T14:40:43;230.70;2022.40
55365;DHT22;41245;45.384;20.390;2022-12-07T14:43:12;230.70;2176.00
55365;DHT22;41245;45.384;20.390;2022-12-07T14:45:39;230.70;2176.00
55365;DHT22;41245;45.384;20.390;2022-12-07T14:48:06;230.70;2048.00
55365;DHT22;41245;45.384;20.390;2022-12-07T14:50:36;230.60;2022.40
55365;DHT22;41245;45.384;20.390;2022-12-07T14:53:10;230.60;2022.40
55365;DHT22;41245;45.384;20.390;2022-12-07T14:55:36;230.60;2073.60
55365;DHT22;41245;45.384;20.390;2022-12-07T14:58:02;230.60;2201.60
55365;DHT22;41245;45.384;20.390;2022-12-07T15:00:28;230.70;2124.80
55365;DHT22;41245;45.384;20.390;2022-12-07T15:02:55;230.70;2252.80
55365;DHT22;41245;45.384;20.390;2022-12-07T15:05:22;230.50;2099.20
55365;DHT22;41245;45.384;20.390;2022-12-07T15:07:48;230.50;2201.60
55365;DHT22;41245;45.384;20.390;2022-12-07T15:10:29;205.70;2099.20
55365;DHT22;41245;45.384;20.390;2022-12-07T15:12:58;205.50;2099.20
55365;DHT22;41245;45.384;20.390;2022-12-07T15:15:43;205.50;2252.80
55365;DHT22;41245;45.384;20.390;2022-12-07T15:18:09;205.60;2252.80
55365;DHT22;41245;45.384;20.390;2022-12-07T15:20:35;205.50;2201.60
55365;DHT22;41245;45.384;20.390;2022-12-07T15:23:00;205.40;1996.80
55365;DHT22;41245;45.384;20.390;2022-12-07T15:25:26;230.40;2022.40
55365;DHT22;41245;45.384;20.390;2022-12-07T15:27:52;205.30;2252.80
55365;DHT22;41245;45.384;20.390;2022-12-07T15:30:18;205.30;2201.60
55365;DHT22;41245;45.384;20.390;2022-12-07T15:32:43;205.20;2124.80
55365;DHT22;41245;45.384;20.390;2022-12-07T15:35:09;205.10;2022.40
55365;DHT22;41245;45.384;20.390;2022-12-07T15:37:35;205.20;2150.40
55365;DHT22;41245;45.384;20.390;2022-12-07T15:40:01;205.10;2176.00
55365;DHT22;41245;45.384;20.390;2022-12-07T15:42:26;205.10;2099.20
55365;DHT22;41245;45.384;20.390;2022-12-07T15:44:52;205.20;2099.20
55365;DHT22;41245;45.384;20.390;2022-12-07T15:47:35;205.10;2048.00
55365;DHT22;41245;45.384;20.390;2022-12-07T15:50:06;205.10;2073.60
55365;DHT22;41245;45.384;20.390;2022-12-07T15:52:32;205.10;2048.00
55365;DHT22;41245;45.384;20.390;2022-12-07T15:54:58;205.10;2022.40
55365;DHT22;41245;45.384;20.390;2022-12-07T15:57:31;205.00;1971.20
55365;DHT22;41245;45.384;20.390;2022-12-07T15:59:57;205.10;1945.60
55365;DHT22;41245;45.384;20.390;2022-12-07T16:02:23;205.10;2048.00
55365;DHT22;41245;45.384;20.390;2022-12-07T16:04:49;205.10;1996.80
55365;DHT22;41245;45.384;20.390;2022-12-07T16:07:15;205.10;2150.40
55365;DHT22;41245;45.384;20.390;2022-12-07T16:09:42;205.20;2022.40
55365;DHT22;41245;45.384;20.390;2022-12-07T16:12:09;205.10;2048.00
55365;DHT22;41245;45.384;20.390;2022-12-07T16:14:35;205.10;1971.20
55365;DHT22;41245;45.384;20.390;2022-12-07T16:17:01;205.10;2022.40
55365;DHT22;41245;45.384;20.390;2022-12-07T16:19:27;205.10;2022.40
55365;DHT22;41245;45.384;20.390;2022-12-07T16:21:52;205.00;1996.80
55365;DHT22;41245;45.384;20.390;2022-12-07T16:24:18;204.90;1920.00
55365;DHT22;41245;45.384;20.390;2022-12-07T16:26:44;180.10;1843.20
55365;DHT22;41245;45.384;20.390;2022-12-07T16:29:14;180.00;2124.80
55365;DHT22;41245;45.384;20.390;2022-12-07T16:31:40;179.90;1894.40
55365;DHT22;41245;45.384;20.390;2022-12-07T16:34:06;180.00;2201.60
55365;DHT22;41245;45.384;20.390;2022-12-07T16:36:32;180.10;2227.20
55365;DHT22;41245;45.384;20.390;2022-12-07T16:38:59;180.10;2124.80
55365;DHT22;41245;45.384;20.390;2022-12-07T16:41:25;180.10;2073.60
55365;DHT22;41245;45.384;20.390;2022-12-07T16:43:51;180.00;2150.40
55365;DHT22;41245;45.384;20.390;2022-12-07T16:46:17;180.10;2176.00
55365;DHT22;41245;45.384;20.390;2022-12-07T16:48:43;180.10;2227.20
55365;DHT22;41245;45.384;20.390;2022-12-07T16:51:11;180.10;2252.80
55365;DHT22;41245;45.384;20.390;2022-12-07T16:53:39;180.10;2252.80
55365;DHT22;41245;45.384;20.390;2022-12-07T16:56:13;179.80;2176.00
55365;DHT22;41245;45.384;20.390;2022-12-07T16:58:40;179.80;2150.40
55365;DHT22;41245;45.384;20.390;2022-12-07T17:01:19;180.00;2099.20
55365;DHT22;41245;45.384;20.390;2022-12-07T17:03:45;179.80;1996.80
55365;DHT22;41245;45.384;20.390;2022-12-07T17:06:21;179.90;2022.40
55365;DHT22;41245;45.384;20.390;2022-12-07T17:08:47;179.90;2099.20
55365;DHT22;41245;45.384;20.390;2022-12-07T17:11:19;179.70;2150.40
55365;DHT22;41245;45.384;20.390;2022-12-07T17:13:45;179.50;2073.60
55365;DHT22;41245;45.384;20.390;2022-12-07T17:16:29;179.40;2022.40
55365;DHT22;41245;45.384;20.390;2022-12-07T17:18:55;179.40;2022.40
55365;DHT22;41245;45.384;20.390;2022-12-07T17:21:21;179.30;1996.80
55365;DHT22;41245;45.384;20.390;2022-12-07T17:23:48;179.30;1996.80
55365;DHT22;41245;45.384;20.390;2022-12-07T17:26:17;179.30;1971.20